sensor_id;sensor_type;location;lat;lon;timestamp;temperature;humidity
9385;DHT22;4732;49.340;10.886;2023-11-22T04:02:45;2.90;99.90
9385;DHT22;4732;49.340;10.886;2023-11-22T04:05:11;3.00;99.90
9385;DHT22;4732;49.340;10.886;2023-11-22T04:07:37;3.00;99.90
9385;DHT22;4732;49.340;10.886;2023-11-22T04:10:04;3.00;99.90
9385;DHT22;4732;49.340;10.886;2023-11-22T04:12:31;3.00;99.90
9385;DHT22;4732;49.340;10.886;2023-11-22T04:14:57;2.90;99.90
9385;DHT22;4732;49.340;10.886;2023-11-22T04:17:23;3.00;99.90
9385;DHT22;4732;49.340;10.886;2023-11-22T04:19:49;3.00;99.90
9385;DHT22;4732;49.340;10.886;2023-11-22T04:22:14;3.00;99.90
9385;DHT22;4732;49.340;10.886;2023-11-22T04:24:40;3.00;99.90
9385;DHT22;4732;49.340;10.886;2023-11-22T04:27:05;3.00;99.90
9385;DHT22;4732;49.340;10.886;2023-11-22T04:29:30;3.00;99.90
9385;DHT22;4732;49.340;10.886;2023-11-22T04:31:56;2.90;99.90
9385;DHT22;4732;49.340;10.886;2023-11-22T04:34:21;2.90;99.90
9385;DHT22;4732;49.340;10.886;2023-11-22T04:36:47;2.90;99.90
9385;DHT22;4732;49.340;10.886;2023-11-22T04:39:13;2.90;99.90
9385;DHT22;4732;49.340;10.886;2023-11-22T04:41:38;3.00;99.90
9385;DHT22;4732;49.340;10.886;2023-11-22T04:44:04;3.00;99.90
9385;DHT22;4732;49.340;10.886;2023-11-22T04:46:30;3.00;99.90
9385;DHT22;4732;49.340;10.886;2023-11-22T04:48:56;2.90;99.90
9385;DHT22;4732;49.340;10.886;2023-11-22T04:51:23;3.00;99.90
9385;DHT22;4732;49.340;10.886;2023-11-22T04:53:49;3.10;99.90
9385;DHT22;4732;49.340;10.886;2023-11-22T04:56:15;3.00;99.90
9385;DHT22;4732;49.340;10.886;2023-11-22T04:58:42;3.00;99.90
9385;DHT22;4732;49.340;10.886;2023-11-22T05:01:07;3.00;99.90
9385;DHT22;4732;49.340;10.886;2023-11-22T05:03:36;3.00;99.90
9385;DHT22;4732;49.340;10.886;2023-11-22T05:06:03;3.00;99.90
9385;DHT22;4732;49.340;10.886;2023-11-22T05:08:28;2.90;99.90
9385;DHT22;4732;49.340;10.886;2023-11-22T05:10:55;2.90;99.90
9385;DHT22;4732;49.340;10.886;2023-11-22T05:13:21;2.80;99.90
9385;DHT22;4732;49.340;10.886;2023-11-22T05:15:46;2.80;99.90
9385;DHT22;4732;49.340;10.886;2023-11-22T05:18:12;2.90;99.90
9385;DHT22;4732;49.340;10.886;2023-11-22T05:20:37;2.80;99.90
9385;DHT22;4732;49.340;10.886;2023-11-22T05:23:03;2.80;99.90
9385;DHT22;4732;49.340;10.886;2023-11-22T05:25:29;2.90;99.90
9385;DHT22;4732;49.340;10.886;2023-11-22T05:27:55;2.90;99.90
9385;DHT22;4732;49.340;10.886;2023-11-22T05:30:20;2.80;99.90
9385;DHT22;4732;49.340;10.886;2023-11-22T05:32:49;2.90;99.90
9385;DHT22;4732;49.340;10.886;2023-11-22T05:35:14;2.80;99.90
9385;DHT22;4732;49.340;10.886;2023-11-22T05:37:40;2.70;99.90
9385;DHT22;4732;49.340;10.886;2023-11-22T05:40:06;2.70;99.90
9385;DHT22;4732;49.340;10.886;2023-11-22T05:42:35;2.70;99.90
9385;DHT22;4732;49.340;10.886;2023-11-22T05:45:01;2.70;99.90
9385;DHT22;4732;49.340;10.886;2023-11-22T05:47:26;2.70;99.90
9385;DHT22;4732;49.340;10.886;2023-11-22T05:49:52;2.70;99.90
9385;DHT22;4732;49.340;10.886;2023-11-22T05:52:17;2.70;99.90
9385;DHT22;4732;49.340;10.886;2023-11-22T05:54:43;2.70;99.90
9385;DHT22;4732;49.340;10.886;2023-11-22T05:57:09;2.60;99.90
9385;DHT22;4732;49.340;10.886;2023-11-22T05:59:35;2.60;99.90
9385;DHT22;4732;49.340;10.886;2023-11-22T06:02:01;2.60;99.90
9385;DHT22;4732;49.340;10.886;2023-11-22T06:04:26;2.60;99.90
9385;DHT22;4732;49.340;10.886;2023-11-22T06:06:52;2.60;99.90
9385;DHT22;4732;49.340;10.886;2023-11-22T06:09:17;2.50;99.90
9385;DHT22;4732;49.340;10.886;2023-11-22T06:11:43;2.60;99.90
9385;DHT22;4732;49.340;10.886;2023-11-22T06:14:08;2.60;99.90
9385;DHT22;4732;49.340;10.886;2023-11-22T06:16:34;2.60;99.90
9385;DHT22;4732;49.340;10.886;2023-11-22T06:18:59;2.60;99.90
9385;DHT22;4732;49.340;10.886;2023-11-22T06:21:25;2.70;99.90
9385;DHT22;4732;49.340;10.886;2023-11-22T06:23:52;2.70;99.90
9385;DHT22;4732;49.340;10.886;2023-11-22T06:26:20;2.60;99.90
9385;DHT22;4732;49.340;10.886;2023-11-22T06:28:46;2.60;99.90
9385;DHT22;4732;49.340;10.886;2023-11-22T06:31:17;2.50;99.90
9385;DHT22;4732;49.340;10.886;2023-11-22T06:33:43;2.60;99.90
9385;DHT22;4732;49.340;10.886;2023-11-22T06:36:08;2.60;99.90
9385;DHT22;4732;49.340;10.886;2023-11-22T06:38:36;2.60;99.90
9385;DHT22;4732;49.340;10.886;2023-11-22T06:41:02;2.50;99.90
9385;DHT22;4732;49.340;10.886;2023-11-22T06:43:27;2.50;99.90
9385;DHT22;4732;49.340;10.886;2023-11-22T06:45:53;2.50;99.90
9385;DHT22;4732;49.340;10.886;2023-11-22T06:48:18;2.40;99.90
9385;DHT22;4732;49.340;10.886;2023-11-22T06:50:44;2.40;99.90
9385;DHT22;4732;49.340;10.886;2023-11-22T06:53:10;2.50;99.90
9385;DHT22;4732;49.340;10.886;2023-11-22T06:55:37;2.50;99.90
9385;DHT22;4732;49.340;10.886;2023-11-22T06:58:04;2.50;99.90
9385;DHT22;4732;49.340;10.886;2023-11-22T07:00:31;2.50;99.90
9385;DHT22;4732;49.340;10.886;2023-11-22T07:02:58;2.50;99.90
9385;DHT22;4732;49.340;10.886;2023-11-22T07:05:23;2.50;99.90
9385;DHT22;4732;49.340;10.886;2023-11-22T07:07:49;2.40;99.90
9385;DHT22;4732;49.340;10.886;2023-11-22T07:10:15;2.40;99.90
9385;DHT22;4732;49.340;10.886;2023-11-22T07:12:41;2.40;99.90
9385;DHT22;4732;49.340;10.886;2023-11-22T07:15:08;2.40;99.90
9385;DHT22;4732;49.340;10.886;2023-11-22T07:17:35;2.40;99.90
9385;DHT22;4732;49.340;10.886;2023-11-22T07:20:00;2.30;99.90
9385;DHT22;4732;49.340;10.886;2023-11-22T07:22:27;2.30;99.90
9385;DHT22;4732;49.340;10.886;2023-11-22T07:24:53;2.40;99.90
9385;DHT22;4732;49.340;10.886;2023-11-22T07:27:25;2.40;99.90
9385;DHT22;4732;49.340;10.886;2023-11-22T07:29:51;2.30;99.90
9385;DHT22;4732;49.340;10.886;2023-11-22T07:32:17;2.20;99.90
9385;DHT22;4732;49.340;10.886;2023-11-22T07:34:45;2.20;99.90
9385;DHT22;4732;49.340;10.886;2023-11-22T07:37:11;2.30;99.90
9385;DHT22;4732;49.340;10.886;2023-11-22T07:39:38;2.30;99.90
9385;DHT22;4732;49.340;10.886;2023-11-22T07:42:05;2.30;99.90
9385;DHT22;4732;49.340;10.886;2023-11-22T07:44:35;2.30;99.90
9385;DHT22;4732;49.340;10.886;2023-11-22T07:47:03;2.30;99.90
9385;DHT22;4732;49.340;10.886;2023-11-22T07:49:31;2.20;99.90
9385;DHT22;4732;49.340;10.886;2023-11-22T07:51:56;2.30;99.90
9385;DHT22;4732;49.340;10.886;2023-11-22T07:54:22;2.30;99.90
9385;DHT22;4732;49.340;10.886;2023-11-22T07:56:51;2.30;99.90
9385;DHT22;4732;49.340;10.886;2023-11-22T07:59:18;2.40;99.90
9385;DHT22;4732;49.340;10.886;2023-11-22T08:01:44;2.40;99.90
9385;DHT22;4732;49.340;10.886;2023-11-22T08:04:10;2.40;99.90
9385;DHT22;4732;49.340;10.886;2023-11-22T08:06:35;2.40;99.90
9385;DHT22;4732;49.340;10.886;2023-11-22T08:09:01;2.40;99.90
9385;DHT22;4732;49.340;10.886;2023-11-22T08:11:30;2.40;99.90
9385;DHT22;4732;49.340;10.886;2023-11-22T08:13:57;2.30;99.90
9385;DHT22;4732;49.340;10.886;2023-11-22T08:16:24;2.30;99.90
9385;DHT22;4732;49.340;10.886;2023-11-22T08:18:50;2.30;99.90
9385;DHT22;4732;49.340;10.886;2023-11-22T08:21:16;2.20;99.90
9385;DHT22;4732;49.340;10.886;2023-11-22T08:23:42;2.30;99.90
9385;DHT22;4732;49.340;10.886;2023-11-22T08:26:07;2.30;99.90
9385;DHT22;4732;49.340;10.886;2023-11-22T08:28:34;2.30;99.90
9385;DHT22;4732;49.340;10.886;2023-11-22T08:31:00;2.30;99.90
9385;DHT22;4732;49.340;10.886;2023-11-22T08:33:26;2.30;99.90
9385;DHT22;4732;49.340;10.886;2023-11-22T08:35:52;2.30;99.90
9385;DHT22;4732;49.340;10.886;2023-11-22T08:38:24;2.30;99.90
9385;DHT22;4732;49.340;10.886;2023-11-22T08:40:49;2.30;99.90
9385;DHT22;4732;49.340;10.886;2023-11-22T08:43:15;2.30;99.90
9385;DHT22;4732;49.340;10.886;2023-11-22T08:45:41;2.20;99.90
9385;DHT22;4732;49.340;10.886;2023-11-22T08:48:09;2.30;99.90
9385;DHT22;4732;49.340;10.886;2023-11-22T08:50:35;2.40;99.90
9385;DHT22;4732;49.340;10.886;2023-11-22T08:53:00;2.30;99.90
9385;DHT22;4732;49.340;10.886;2023-11-22T08:55:26;2.30;99.90
9385;DHT22;4732;49.340;10.886;2023-11-22T08:57:51;2.30;99.90
9385;DHT22;4732;49.340;10.886;2023-11-22T09:00:17;2.30;99.90
9385;DHT22;4732;49.340;10.886;2023-11-22T09:02:48;2.40;99.90
9385;DHT22;4732;49.340;10.886;2023-11-22T09:05:14;2.30;99.90
9385;DHT22;4732;49.340;10.886;2023-11-22T09:07:42;2.20;99.90
9385;DHT22;4732;49.340;10.886;2023-11-22T09:10:10;2.20;99.90
9385;DHT22;4732;49.340;10.886;2023-11-22T09:12:39;2.30;99.90
9385;DHT22;4732;49.340;10.886;2023-11-22T09:15:07;2.40;99.90
9385;DHT22;4732;49.340;10.886;2023-11-22T09:17:37;2.40;99.90
9385;DHT22;4732;49.340;10.886;2023-11-22T09:20:15;2.30;99.90
9385;DHT22;4732;49.340;10.886;2023-11-22T09:22:45;2.30;99.90
9385;DHT22;4732;49.340;10.886;2023-11-22T09:25:14;2.30;99.90
9385;DHT22;4732;49.340;10.886;2023-11-22T09:27:42;2.20;99.90
9385;DHT22;4732;49.340;10.886;2023-11-22T09:30:08;2.20;99.90
9385;DHT22;4732;49.340;10.886;2023-11-22T09:32:44;2.20;99.90
9385;DHT22;4732;49.340;10.886;2023-11-22T09:35:10;2.30;99.90
9385;DHT22;4732;49.340;10.886;2023-11-22T09:37:35;2.30;99.90
9385;DHT22;4732;49.340;10.886;2023-11-22T09:40:03;2.30;99.90
9385;DHT22;4732;49.340;10.886;2023-11-22T09:42:34;2.40;99.90
9385;DHT22;4732;49.340;10.886;2023-11-22T09:44:59;2.40;99.90
9385;DHT22;4732;49.340;10.886;2023-11-22T09:47:26;2.30;99.90
9385;DHT22;4732;49.340;10.886;2023-11-22T09:49:55;2.30;99.90
9385;DHT22;4732;49.340;10.886;2023-11-22T09:52:23;2.20;99.90
9385;DHT22;4732;49.340;10.886;2023-11-22T09:54:53;2.20;99.90
9385;DHT22;4732;49.340;10.886;2023-11-22T09:57:20;2.20;99.90
9385;DHT22;4732;49.340;10.886;2023-11-22T09:59:47;2.20;99.90
9385;DHT22;4732;49.340;10.886;2023-11-22T10:02:16;2.20;99.90
9385;DHT22;4732;49.340;10.886;2023-11-22T10:04:42;2.10;99.90
9385;DHT22;4732;49.340;10.886;2023-11-22T10:07:09;2.00;99.90
9385;DHT22;4732;49.340;10.886;2023-11-22T10:09:35;2.10;99.90
9385;DHT22;4732;49.340;10.886;2023-11-22T10:12:03;2.10;99.90
9385;DHT22;4732;49.340;10.886;2023-11-22T10:14:30;2.20;99.90
9385;DHT22;4732;49.340;10.886;2023-11-22T10:17:00;2.20;99.90
9385;DHT22;4732;49.340;10.886;2023-11-22T10:19:27;2.20;99.90
9385;DHT22;4732;49.340;10.886;2023-11-22T10:22:07;2.20;99.90
9385;DHT22;4732;49.340;10.886;2023-11-22T10:24:33;2.30;99.90
9385;DHT22;4732;49.340;10.886;2023-11-22T10:27:00;2.20;99.90
9385;DHT22;4732;49.340;10.886;2023-11-22T10:29:27;2.20;99.90
9385;DHT22;4732;49.340;10.886;2023-11-22T10:31:52;2.20;99.90
9385;DHT22;4732;49.340;10.886;2023-11-22T10:34:21;2.20;99.90
9385;DHT22;4732;49.340;10.886;2023-11-22T10:36:49;2.20;99.90
9385;DHT22;4732;49.340;10.886;2023-11-22T10:39:22;2.20;99.90
9385;DHT22;4732;49.340;10.886;2023-11-22T10:41:48;2.20;99.90
9385;DHT22;4732;49.340;10.886;2023-11-22T10:44:19;2.20;99.90
9385;DHT22;4732;49.340;10.886;2023-11-22T10:46:45;2.20;99.90
9385;DHT22;4732;49.340;10.886;2023-11-22T10:49:12;2.30;99.90
9385;DHT22;4732;49.340;10.886;2023-11-22T10:51:39;2.30;99.90
9385;DHT22;4732;49.340;10.886;2023-11-22T10:54:06;2.40;99.90
9385;DHT22;4732;49.340;10.886;2023-11-22T10:56:39;2.40;99.90
9385;DHT22;4732;49.340;10.886;2023-11-22T10:59:12;2.40;99.90
9385;DHT22;4732;49.340;10.886;2023-11-22T11:01:47;2.50;99.90
9385;DHT22;4732;49.340;10.886;2023-11-22T11:04:29;2.50;99.90
9385;DHT22;4732;49.340;10.886;2023-11-22T11:06:59;2.50;99.90
9385;DHT22;4732;49.340;10.886;2023-11-22T11:09:29;2.50;99.90
9385;DHT22;4732;49.340;10.886;2023-11-22T11:11:58;2.50;99.90
9385;DHT22;4732;49.340;10.886;2023-11-22T11:14:26;2.60;99.90
9385;DHT22;4732;49.340;10.886;2023-11-22T11:16:52;2.60;99.90
9385;DHT22;4732;49.340;10.886;2023-11-22T11:19:20;2.60;99.90
9385;DHT22;4732;49.340;10.886;2023-11-22T11:21:50;2.50;99.90
9385;DHT22;4732;49.340;10.886;2023-11-22T11:24:17;2.50;99.90
9385;DHT22;4732;49.340;10.886;2023-11-22T11:26:48;2.60;99.90
9385;DHT22;4732;49.340;10.886;2023-11-22T11:29:35;2.60;99.90
9385;DHT22;4732;49.340;10.886;2023-11-22T11:32:10;2.50;99.90
9385;DHT22;4732;49.340;10.886;2023-11-22T11:34:56;2.50;99.90
9385;DHT22;4732;49.340;10.886;2023-11-22T11:37:21;2.50;99.90
9385;DHT22;4732;49.340;10.886;2023-11-22T11:39:48;2.50;99.90
9385;DHT22;4732;49.340;10.886;2023-11-22T11:42:14;2.50;99.90
9385;DHT22;4732;49.340;10.886;2023-11-22T11:45:06;2.50;99.90
9385;DHT22;4732;49.340;10.886;2023-11-22T11:47:33;2.50;99.90
9385;DHT22;4732;49.340;10.886;2023-11-22T11:49:59;2.50;99.90
9385;DHT22;4732;49.340;10.886;2023-11-22T11:52:25;2.50;99.90
9385;DHT22;4732;49.340;10.886;2023-11-22T11:54:51;2.50;99.90
9385;DHT22;4732;49.340;10.886;2023-11-22T11:57:17;2.50;99.90
9385;DHT22;4732;49.340;10.886;2023-11-22T11:59:42;2.50;99.90
9385;DHT22;4732;49.340;10.886;2023-11-22T12:02:09;2.50;99.90
9385;DHT22;4732;49.340;10.886;2023-11-22T12:04:35;2.50;99.90
9385;DHT22;4732;49.340;10.886;2023-11-22T12:07:00;2.50;99.90
9385;DHT22;4732;49.340;10.886;2023-11-22T12:09:27;2.50;99.90
9385;DHT22;4732;49.340;10.886;2023-11-22T12:11:55;2.60;99.90
9385;DHT22;4732;49.340;10.886;2023-11-22T12:14:23;2.50;99.90
9385;DHT22;4732;49.340;10.886;2023-11-22T12:16:51;2.50;99.90
9385;DHT22;4732;49.340;10.886;2023-11-22T12:19:28;2.50;99.90
9385;DHT22;4732;49.340;10.886;2023-11-22T12:21:56;2.50;99.90
9385;DHT22;4732;49.340;10.886;2023-11-22T12:24:23;2.50;99.90
9385;DHT22;4732;49.340;10.886;2023-11-22T12:26:50;2.40;99.90
9385;DHT22;4732;49.340;10.886;2023-11-22T12:29:16;2.40;99.90
9385;DHT22;4732;49.340;10.886;2023-11-22T12:31:49;2.40;99.90
9385;DHT22;4732;49.340;10.886;2023-11-22T12:34:20;2.40;99.90
9385;DHT22;4732;49.340;10.886;2023-11-22T12:36:47;2.40;99.90
9385;DHT22;4732;49.340;10.886;2023-11-22T12:39:14;2.40;99.90
9385;DHT22;4732;49.340;10.886;2023-11-22T12:41:47;2.50;99.90
9385;DHT22;4732;49.340;10.886;2023-11-22T12:44:13;2.40;99.90
9385;DHT22;4732;49.340;10.886;2023-11-22T12:46:52;2.40;99.90
9385;DHT22;4732;49.340;10.886;2023-11-22T12:49:23;2.40;99.90
9385;DHT22;4732;49.340;10.886;2023-11-22T12:51:50;2.40;99.90
9385;DHT22;4732;49.340;10.886;2023-11-22T12:54:15;2.40;99.90
9385;DHT22;4732;49.340;10.886;2023-11-22T12:56:42;2.40;99.90
9385;DHT22;4732;49.340;10.886;2023-11-22T12:59:07;2.40;99.90
9385;DHT22;4732;49.340;10.886;2023-11-22T13:01:34;2.40;99.90
9385;DHT22;4732;49.340;10.886;2023-11-22T13:04:00;2.50;99.90
9385;DHT22;4732;49.340;10.886;2023-11-22T13:06:26;2.50;99.90
9385;DHT22;4732;49.340;10.886;2023-11-22T13:08:52;2.50;99.90
9385;DHT22;4732;49.340;10.886;2023-11-22T13:11:18;2.50;99.90
9385;DHT22;4732;49.340;10.886;2023-11-22T13:13:44;2.50;99.90
9385;DHT22;4732;49.340;10.886;2023-11-22T13:16:12;2.50;99.90
9385;DHT22;4732;49.340;10.886;2023-11-22T13:18:37;2.50;99.90
9385;DHT22;4732;49.340;10.886;2023-11-22T13:21:03;2.40;99.90
9385;DHT22;4732;49.340;10.886;2023-11-22T13:23:29;2.40;99.90
9385;DHT22;4732;49.340;10.886;2023-11-22T13:25:55;2.40;99.90
9385;DHT22;4732;49.340;10.886;2023-11-22T13:28:20;2.40;99.90
9385;DHT22;4732;49.340;10.886;2023-11-22T13:30:46;2.40;99.90
9385;DHT22;4732;49.340;10.886;2023-11-22T13:33:14;2.30;99.90
9385;DHT22;4732;49.340;10.886;2023-11-22T13:35:39;2.30;99.90
9385;DHT22;4732;49.340;10.886;2023-11-22T13:38:06;2.40;99.90
9385;DHT22;4732;49.340;10.886;2023-11-22T13:40:36;2.30;99.90
9385;DHT22;4732;49.340;10.886;2023-11-22T13:43:04;2.30;99.90
9385;DHT22;4732;49.340;10.886;2023-11-22T13:45:30;2.30;99.90
9385;DHT22;4732;49.340;10.886;2023-11-22T13:47:56;2.30;99.90
9385;DHT22;4732;49.340;10.886;2023-11-22T13:50:29;2.30;99.90
9385;DHT22;4732;49.340;10.886;2023-11-22T13:52:55;2.20;99.90
9385;DHT22;4732;49.340;10.886;2023-11-22T13:55:22;2.20;99.90
9385;DHT22;4732;49.340;10.886;2023-11-22T13:57:51;2.30;99.90
9385;DHT22;4732;49.340;10.886;2023-11-22T14:00:18;2.20;99.90
9385;DHT22;4732;49.340;10.886;2023-11-22T14:02:52;2.20;99.90
9385;DHT22;4732;49.340;10.886;2023-11-22T14:05:18;2.20;99.90
9385;DHT22;4732;49.340;10.886;2023-11-22T14:07:44;2.20;99.90
9385;DHT22;4732;49.340;10.886;2023-11-22T14:10:10;2.30;99.90
9385;DHT22;4732;49.340;10.886;2023-11-22T14:12:37;2.30;99.90
9385;DHT22;4732;49.340;10.886;2023-11-22T14:15:04;2.20;99.90
9385;DHT22;4732;49.340;10.886;2023-11-22T14:17:30;2.20;99.90
9385;DHT22;4732;49.340;10.886;2023-11-22T14:19:56;2.20;99.90
9385;DHT22;4732;49.340;10.886;2023-11-22T14:22:22;2.20;99.90
9385;DHT22;4732;49.340;10.886;2023-11-22T14:24:51;2.20;99.90
9385;DHT22;4732;49.340;10.886;2023-11-22T14:27:18;2.30;99.90
9385;DHT22;4732;49.340;10.886;2023-11-22T14:29:44;2.30;99.90
9385;DHT22;4732;49.340;10.886;2023-11-22T14:32:13;2.20;99.90
9385;DHT22;4732;49.340;10.886;2023-11-22T14:34:38;2.20;99.90
9385;DHT22;4732;49.340;10.886;2023-11-22T14:37:05;2.20;99.90
9385;DHT22;4732;49.340;10.886;2023-11-22T14:39:31;2.10;99.90
9385;DHT22;4732;49.340;10.886;2023-11-22T14:41:58;2.10;99.90
9385;DHT22;4732;49.340;10.886;2023-11-22T14:44:24;2.10;99.90
9385;DHT22;4732;49.340;10.886;2023-11-22T14:46:49;2.10;99.90
9385;DHT22;4732;49.340;10.886;2023-11-22T14:49:15;2.10;99.90
9385;DHT22;4732;49.340;10.886;2023-11-22T14:51:41;2.20;99.90
9385;DHT22;4732;49.340;10.886;2023-11-22T14:54:06;2.20;99.90
9385;DHT22;4732;49.340;10.886;2023-11-22T14:56:32;2.30;99.90
9385;DHT22;4732;49.340;10.886;2023-11-22T14:58:59;2.20;99.90
9385;DHT22;4732;49.340;10.886;2023-11-22T15:01:25;2.20;99.90
9385;DHT22;4732;49.340;10.886;2023-11-22T15:03:51;2.20;99.90
9385;DHT22;4732;49.340;10.886;2023-11-22T15:06:22;2.20;99.90
9385;DHT22;4732;49.340;10.886;2023-11-22T15:08:47;2.20;99.90
9385;DHT22;4732;49.340;10.886;2023-11-22T15:11:14;2.20;99.90
9385;DHT22;4732;49.340;10.886;2023-11-22T15:13:41;2.20;99.90
9385;DHT22;4732;49.340;10.886;2023-11-22T15:16:07;2.10;99.90
9385;DHT22;4732;49.340;10.886;2023-11-22T15:18:32;2.10;99.90
9385;DHT22;4732;49.340;10.886;2023-11-22T15:20:58;2.10;99.90
9385;DHT22;4732;49.340;10.886;2023-11-22T15:23:23;2.10;99.90
9385;DHT22;4732;49.340;10.886;2023-11-22T15:25:49;2.10;99.90
9385;DHT22;4732;49.340;10.886;2023-11-22T15:28:15;2.10;99.90
9385;DHT22;4732;49.340;10.886;2023-11-22T15:30:51;2.10;99.90
9385;DHT22;4732;49.340;10.886;2023-11-22T15:33:25;2.10;99.90
9385;DHT22;4732;49.340;10.886;2023-11-22T15:35:51;2.00;99.90
9385;DHT22;4732;49.340;10.886;2023-11-22T15:38:16;2.00;99.90
9385;DHT22;4732;49.340;10.886;2023-11-22T15:40:42;2.10;99.90
9385;DHT22;4732;49.340;10.886;2023-11-22T15:43:08;2.00;99.90
9385;DHT22;4732;49.340;10.886;2023-11-22T15:45:34;2.00;99.90
9385;DHT22;4732;49.340;10.886;2023-11-22T15:48:01;2.00;99.90
9385;DHT22;4732;49.340;10.886;2023-11-22T15:50:26;2.00;99.90
9385;DHT22;4732;49.340;10.886;2023-11-22T15:52:52;2.10;99.90
9385;DHT22;4732;49.340;10.886;2023-11-22T15:55:18;2.00;99.90
9385;DHT22;4732;49.340;10.886;2023-11-22T15:57:43;2.00;99.90
9385;DHT22;4732;49.340;10.886;2023-11-22T16:00:09;2.00;99.90
9385;DHT22;4732;49.340;10.886;2023-11-22T16:02:36;2.00;99.90
9385;DHT22;4732;49.340;10.886;2023-11-22T16:05:02;2.00;99.90
9385;DHT22;4732;49.340;10.886;2023-11-22T16:07:29;2.00;99.90
9385;DHT22;4732;49.340;10.886;2023-11-22T16:09:54;2.00;99.90
9385;DHT22;4732;49.340;10.886;2023-11-22T16:12:20;2.00;99.90
9385;DHT22;4732;49.340;10.886;2023-11-22T16:14:49;1.90;99.90
9385;DHT22;4732;49.340;10.886;2023-11-22T16:17:15;1.90;99.90
9385;DHT22;4732;49.340;10.886;2023-11-22T16:19:41;1.90;99.90
9385;DHT22;4732;49.340;10.886;2023-11-22T16:22:07;1.90;99.90
9385;DHT22;4732;49.340;10.886;2023-11-22T16:24:34;1.90;99.90
9385;DHT22;4732;49.340;10.886;2023-11-22T16:27:01;1.90;99.90
9385;DHT22;4732;49.340;10.886;2023-11-22T16:29:26;2.00;99.90
9385;DHT22;4732;49.340;10.886;2023-11-22T16:31:52;2.00;99.90
9385;DHT22;4732;49.340;10.886;2023-11-22T16:34:17;2.00;99.90
9385;DHT22;4732;49.340;10.886;2023-11-22T16:36:43;2.00;99.90
9385;DHT22;4732;49.340;10.886;2023-11-22T16:39:08;2.00;99.90
9385;DHT22;4732;49.340;10.886;2023-11-22T16:41:35;2.00;99.90
9385;DHT22;4732;49.340;10.886;2023-11-22T16:44:01;2.00;99.90
9385;DHT22;4732;49.340;10.886;2023-11-22T16:46:27;1.90;99.90
9385;DHT22;4732;49.340;10.886;2023-11-22T16:48:57;2.00;99.90
9385;DHT22;4732;49.340;10.886;2023-11-22T16:51:23;1.90;99.90
9385;DHT22;4732;49.340;10.886;2023-11-22T16:53:50;1.90;99.90
9385;DHT22;4732;49.340;10.886;2023-11-22T16:56:16;1.90;99.90
9385;DHT22;4732;49.340;10.886;2023-11-22T16:58:44;1.90;99.90
9385;DHT22;4732;49.340;10.886;2023-11-22T17:01:09;1.90;99.90
9385;DHT22;4732;49.340;10.886;2023-11-22T17:03:35;1.90;99.90
9385;DHT22;4732;49.340;10.886;2023-11-22T17:06:01;1.90;99.90
9385;DHT22;4732;49.340;10.886;2023-11-22T17:08:28;1.90;99.90
9385;DHT22;4732;49.340;10.886;2023-11-22T17:10:54;1.90;99.90
9385;DHT22;4732;49.340;10.886;2023-11-22T17:13:20;1.90;99.90
9385;DHT22;4732;49.340;10.886;2023-11-22T17:15:45;1.90;99.90
9385;DHT22;4732;49.340;10.886;2023-11-22T17:18:11;1.90;99.90
9385;DHT22;4732;49.340;10.886;2023-11-22T17:20:37;1.90;99.90
9385;DHT22;4732;49.340;10.886;2023-11-22T17:23:02;1.90;99.90
9385;DHT22;4732;49.340;10.886;2023-11-22T17:25:28;1.90;99.90
9385;DHT22;4732;49.340;10.886;2023-11-22T17:27:54;1.90;99.90
9385;DHT22;4732;49.340;10.886;2023-11-22T17:30:19;1.90;99.90
9385;DHT22;4732;49.340;10.886;2023-11-22T17:32:45;1.90;99.90
9385;DHT22;4732;49.340;10.886;2023-11-22T17:35:11;1.90;99.90
9385;DHT22;4732;49.340;10.886;2023-11-22T17:37:38;1.80;99.90
9385;DHT22;4732;49.340;10.886;2023-11-22T17:40:04;1.90;99.90
9385;DHT22;4732;49.340;10.886;2023-11-22T17:42:30;1.90;99.90
9385;DHT22;4732;49.340;10.886;2023-11-22T17:44:55;1.90;99.90
9385;DHT22;4732;49.340;10.886;2023-11-22T17:47:21;1.90;99.90
9385;DHT22;4732;49.340;10.886;2023-11-22T17:49:47;1.90;99.90
9385;DHT22;4732;49.340;10.886;2023-11-22T17:52:15;1.90;99.90
9385;DHT22;4732;49.340;10.886;2023-11-22T17:54:41;1.90;99.90
9385;DHT22;4732;49.340;10.886;2023-11-22T17:57:06;1.80;99.90
9385;DHT22;4732;49.340;10.886;2023-11-22T17:59:34;1.90;99.90
9385;DHT22;4732;49.340;10.886;2023-11-22T18:02:00;1.90;99.90
9385;DHT22;4732;49.340;10.886;2023-11-22T18:04:25;1.90;99.90
9385;DHT22;4732;49.340;10.886;2023-11-22T18:06:51;1.90;99.90
9385;DHT22;4732;49.340;10.886;2023-11-22T18:09:17;1.90;99.90
9385;DHT22;4732;49.340;10.886;2023-11-22T18:11:43;1.90;99.90
9385;DHT22;4732;49.340;10.886;2023-11-22T18:14:08;1.90;99.90
9385;DHT22;4732;49.340;10.886;2023-11-22T18:16:36;1.90;99.90
9385;DHT22;4732;49.340;10.886;2023-11-22T18:19:02;1.90;99.90
9385;DHT22;4732;49.340;10.886;2023-11-22T18:21:28;2.00;99.90
9385;DHT22;4732;49.340;10.886;2023-11-22T18:23:53;2.00;99.90
9385;DHT22;4732;49.340;10.886;2023-11-22T18:26:21;2.00;99.90
9385;DHT22;4732;49.340;10.886;2023-11-22T18:28:46;2.00;99.90
9385;DHT22;4732;49.340;10.886;2023-11-22T18:31:12;2.00;99.90
9385;DHT22;4732;49.340;10.886;2023-11-22T18:33:39;2.00;99.90
9385;DHT22;4732;49.340;10.886;2023-11-22T18:36:05;2.00;99.90
9385;DHT22;4732;49.340;10.886;2023-11-22T18:38:31;1.90;99.90
9385;DHT22;4732;49.340;10.886;2023-11-22T18:40:57;1.90;99.90
9385;DHT22;4732;49.340;10.886;2023-11-22T18:43:28;1.80;99.90
9385;DHT22;4732;49.340;10.886;2023-11-22T18:45:54;1.90;99.90
9385;DHT22;4732;49.340;10.886;2023-11-22T18:48:19;1.90;99.90
9385;DHT22;4732;49.340;10.886;2023-11-22T18:50:45;1.80;99.90
9385;DHT22;4732;49.340;10.886;2023-11-22T18:53:11;1.80;99.90
9385;DHT22;4732;49.340;10.886;2023-11-22T18:55:36;1.90;99.90
9385;DHT22;4732;49.340;10.886;2023-11-22T18:58:02;2.00;99.90
9385;DHT22;4732;49.340;10.886;2023-11-22T19:00:30;1.90;99.90
9385;DHT22;4732;49.340;10.886;2023-11-22T19:02:55;1.80;99.90
9385;DHT22;4732;49.340;10.886;2023-11-22T19:05:21;1.80;99.90
9385;DHT22;4732;49.340;10.886;2023-11-22T19:07:47;1.80;99.90
9385;DHT22;4732;49.340;10.886;2023-11-22T19:10:13;1.80;99.90
9385;DHT22;4732;49.340;10.886;2023-11-22T19:12:39;1.80;99.90
9385;DHT22;4732;49.340;10.886;2023-11-22T19:15:07;1.80;99.90
9385;DHT22;4732;49.340;10.886;2023-11-22T19:17:32;1.80;99.90
9385;DHT22;4732;49.340;10.886;2023-11-22T19:19:58;1.80;99.90
9385;DHT22;4732;49.340;10.886;2023-11-22T19:22:25;1.80;99.90
9385;DHT22;4732;49.340;10.886;2023-11-22T19:24:50;1.70;99.90
9385;DHT22;4732;49.340;10.886;2023-11-22T19:27:16;1.70;99.90
9385;DHT22;4732;49.340;10.886;2023-11-22T19:29:41;1.80;99.90
9385;DHT22;4732;49.340;10.886;2023-11-22T19:32:07;1.80;99.90
9385;DHT22;4732;49.340;10.886;2023-11-22T19:34:33;1.90;99.90
9385;DHT22;4732;49.340;10.886;2023-11-22T19:36:58;1.80;99.90
9385;DHT22;4732;49.340;10.886;2023-11-22T19:39:24;1.90;99.90
9385;DHT22;4732;49.340;10.886;2023-11-22T19:41:50;1.80;99.90
9385;DHT22;4732;49.340;10.886;2023-11-22T19:44:16;1.80;99.90
9385;DHT22;4732;49.340;10.886;2023-11-22T19:46:45;1.70;99.90
9385;DHT22;4732;49.340;10.886;2023-11-22T19:49:12;1.80;99.90
9385;DHT22;4732;49.340;10.886;2023-11-22T19:51:40;1.80;99.90
9385;DHT22;4732;49.340;10.886;2023-11-22T19:54:06;1.80;99.90
9385;DHT22;4732;49.340;10.886;2023-11-22T19:56:33;1.80;99.90
9385;DHT22;4732;49.340;10.886;2023-11-22T19:58:59;1.90;99.90
9385;DHT22;4732;49.340;10.886;2023-11-22T20:01:24;1.80;99.90